createdAt,value
2017-06-20T00:01:11.887Z,51.40
2017-06-20T00:03:39.272Z,51.54
2017-06-20T00:06:06.684Z,52.03
2017-06-20T00:08:34.087Z,51.80
2017-06-20T00:11:01.476Z,52.00
2017-06-20T00:13:28.874Z,52.17
2017-06-20T00:15:56.278Z,52.49
2017-06-20T00:18:23.686Z,52.41
2017-06-20T00:20:51.099Z,52.86
2017-06-20T00:23:18.485Z,53.33
2017-06-20T00:25:45.879Z,53.11
2017-06-20T00:28:13.278Z,53.11
2017-06-20T00:30:40.671Z,53.20
2017-06-20T00:33:08.079Z,53.29
2017-06-20T00:35:35.462Z,53.73
2017-06-20T00:38:02.862Z,53.96
2017-06-20T00:40:30.255Z,53.60
2017-06-20T00:42:57.659Z,54.08
2017-06-20T00:45:25.058Z,54.27
2017-06-20T00:47:52.456Z,55.10
2017-06-20T00:50:19.854Z,55.30
2017-06-20T00:52:47.257Z,55.62
2017-06-20T00:55:14.655Z,55.74
2017-06-20T00:57:42.052Z,55.23
2017-06-20T01:00:09.446Z,55.60
2017-06-20T01:02:36.855Z,55.09
2017-06-20T01:05:04.260Z,55.41
2017-06-20T01:07:31.670Z,55.23
2017-06-20T01:09:59.079Z,55.39
2017-06-20T01:12:26.495Z,55.30
2017-06-20T01:14:53.902Z,55.45
2017-06-20T01:17:21.316Z,56.08
2017-06-20T01:19:48.716Z,55.99
2017-06-20T01:22:16.119Z,56.42
2017-06-20T01:24:43.532Z,56.22
2017-06-20T01:27:10.931Z,56.52
2017-06-20T01:29:38.347Z,56.97
2017-06-20T01:32:05.751Z,57.13
2017-06-20T01:34:33.174Z,57.81
2017-06-20T01:37:00.582Z,58.26
2017-06-20T01:39:27.991Z,58.59
2017-06-20T01:41:55.401Z,59.33
2017-06-20T01:44:22.809Z,58.76
2017-06-20T01:46:50.220Z,58.74
2017-06-20T01:49:17.632Z,58.76
2017-06-20T01:51:45.036Z,58.67
2017-06-20T01:54:12.443Z,58.44
2017-06-20T01:56:39.852Z,58.89
2017-06-20T01:59:07.262Z,58.68
2017-06-20T02:01:34.665Z,59.01
2017-06-20T02:04:02.075Z,58.94
2017-06-20T02:06:29.483Z,59.34
2017-06-20T02:08:56.903Z,59.34
2017-06-20T02:11:24.299Z,59.34
2017-06-20T02:13:51.719Z,59.48
2017-06-20T02:16:19.127Z,59.44
2017-06-20T02:18:46.540Z,59.38
2017-06-20T02:21:13.940Z,59.21
2017-06-20T02:23:41.348Z,59.52
2017-06-20T02:26:08.753Z,59.38
2017-06-20T02:28:36.171Z,59.58
2017-06-20T02:31:03.564Z,60.52
2017-06-20T02:33:30.977Z,60.91
2017-06-20T02:35:58.375Z,60.44
2017-06-20T02:38:25.782Z,60.70
2017-06-20T02:40:53.197Z,62.36
2017-06-20T02:43:20.602Z,61.15
2017-06-20T02:45:48.007Z,62.31
2017-06-20T02:48:15.407Z,61.77
2017-06-20T02:50:42.830Z,61.79
2017-06-20T02:53:10.230Z,61.52
2017-06-20T02:55:37.640Z,61.54
2017-06-20T02:58:05.039Z,61.45
2017-06-20T03:00:32.447Z,61.39
2017-06-20T03:02:59.855Z,61.99
2017-06-20T03:05:27.275Z,61.94
2017-06-20T03:07:54.667Z,61.75
2017-06-20T03:10:22.083Z,61.39
2017-06-20T03:12:49.482Z,61.84
2017-06-20T03:15:16.899Z,62.43
2017-06-20T03:17:44.303Z,62.37
2017-06-20T03:20:11.726Z,62.45
2017-06-20T03:22:39.136Z,62.14
2017-06-20T03:25:06.543Z,61.80
2017-06-20T03:27:33.971Z,61.84
2017-06-20T03:30:01.379Z,62.16
2017-06-20T03:32:28.779Z,61.85
2017-06-20T03:34:56.199Z,62.45
2017-06-20T03:37:23.616Z,62.66
2017-06-20T03:39:51.022Z,63.45
2017-06-20T03:42:18.431Z,63.58
2017-06-20T03:44:45.839Z,64.83
2017-06-20T03:47:13.244Z,64.48
2017-06-20T03:49:40.665Z,64.39
2017-06-20T03:52:08.070Z,65.11
2017-06-20T03:54:35.495Z,64.92
2017-06-20T03:57:02.896Z,64.60
2017-06-20T03:59:30.299Z,64.90
2017-06-20T04:01:57.725Z,64.96
2017-06-20T04:04:25.135Z,64.84
2017-06-20T04:06:52.541Z,64.67
2017-06-20T04:09:19.940Z,64.90
2017-06-20T04:11:47.351Z,65.07
2017-06-20T04:14:14.756Z,64.75
2017-06-20T04:16:42.169Z,65.63
2017-06-20T04:19:09.591Z,65.80
2017-06-20T04:21:42.775Z,67.02
2017-06-20T04:24:10.179Z,67.03
2017-06-20T04:26:37.584Z,67.88
2017-06-20T04:29:04.997Z,67.73
2017-06-20T04:31:32.409Z,68.21
2017-06-20T04:33:59.816Z,68.33
2017-06-20T04:36:27.242Z,68.35
2017-06-20T04:38:54.670Z,68.08
2017-06-20T04:41:22.101Z,67.78
2017-06-20T04:43:49.528Z,68.82
2017-06-20T04:46:16.948Z,69.32
2017-06-20T04:48:44.357Z,69.54
2017-06-20T04:51:11.763Z,69.96
2017-06-20T04:53:39.183Z,69.92
2017-06-20T04:56:06.600Z,69.84
2017-06-20T04:58:34.008Z,69.95
2017-06-20T05:01:01.412Z,69.83
2017-06-20T05:03:28.824Z,69.49
2017-06-20T05:05:56.232Z,69.25
2017-06-20T05:08:23.674Z,68.55
2017-06-20T05:10:51.091Z,68.71
2017-06-20T05:13:18.541Z,68.65
2017-06-20T05:15:45.959Z,68.07
2017-06-20T05:18:13.372Z,68.59
2017-06-20T05:20:40.774Z,67.05
2017-06-20T05:23:08.210Z,67.72
2017-06-20T05:25:35.611Z,68.04
2017-06-20T05:28:03.047Z,67.61
2017-06-20T05:30:30.474Z,67.97
2017-06-20T05:32:57.880Z,66.83
2017-06-20T05:35:25.288Z,66.38
2017-06-20T05:37:52.699Z,66.60
2017-06-20T05:40:20.107Z,66.58
2017-06-20T05:42:47.523Z,66.17
2017-06-20T05:45:14.934Z,65.56
2017-06-20T05:47:42.353Z,65.85
2017-06-20T05:50:09.780Z,66.05
2017-06-20T05:52:37.195Z,65.88
2017-06-20T05:55:04.605Z,66.35
2017-06-20T05:57:32.019Z,66.47
2017-06-20T05:59:59.427Z,65.94
2017-06-20T06:02:26.839Z,66.23
2017-06-20T06:04:54.290Z,66.00
2017-06-20T06:07:21.707Z,65.99
2017-06-20T06:09:49.147Z,66.14
2017-06-20T06:12:16.555Z,66.50
2017-06-20T06:14:43.967Z,66.40
2017-06-20T06:17:11.381Z,66.64
2017-06-20T06:19:38.787Z,65.96
2017-06-20T06:22:06.249Z,65.81
2017-06-20T06:24:33.654Z,66.01
2017-06-20T06:27:01.065Z,66.02
2017-06-20T06:29:28.484Z,65.75
2017-06-20T06:31:55.895Z,65.48
2017-06-20T06:34:23.320Z,65.34
2017-06-20T06:36:50.723Z,64.89
2017-06-20T06:39:18.127Z,64.52
2017-06-20T06:41:45.536Z,64.63
2017-06-20T06:44:12.955Z,64.07
2017-06-20T06:46:40.358Z,63.10
2017-06-20T06:49:07.778Z,64.14
2017-06-20T06:51:35.176Z,63.45
2017-06-20T06:54:02.584Z,64.41
2017-06-20T06:56:30.000Z,63.40
2017-06-20T06:58:57.419Z,63.16
2017-06-20T07:01:24.823Z,63.04
2017-06-20T07:03:52.233Z,63.68
2017-06-20T07:06:19.641Z,63.76
2017-06-20T07:08:47.059Z,64.08
2017-06-20T07:11:14.470Z,63.57
2017-06-20T07:13:41.887Z,64.29
2017-06-20T07:16:09.304Z,64.27
2017-06-20T07:18:36.723Z,64.31
2017-06-20T07:21:04.130Z,63.86
2017-06-20T07:23:31.539Z,63.96
2017-06-20T07:25:58.942Z,63.06
2017-06-20T07:28:26.352Z,63.58
2017-06-20T07:30:53.770Z,64.11
2017-06-20T07:33:21.187Z,64.53
2017-06-20T07:35:48.617Z,63.66
2017-06-20T07:38:16.046Z,63.77
2017-06-20T07:40:43.455Z,63.92
2017-06-20T07:43:10.884Z,63.41
2017-06-20T07:45:38.310Z,63.74
2017-06-20T07:48:05.723Z,63.45
2017-06-20T07:50:33.180Z,63.20
2017-06-20T07:53:00.613Z,63.90
2017-06-20T07:55:28.036Z,63.83
2017-06-20T07:57:55.459Z,63.73
2017-06-20T08:00:22.889Z,64.05
2017-06-20T08:02:50.315Z,64.02
2017-06-20T08:05:17.736Z,61.26
2017-06-20T08:07:45.164Z,62.14
2017-06-20T08:10:12.579Z,62.59
2017-06-20T08:12:39.991Z,61.87
2017-06-20T08:15:07.413Z,62.07
2017-06-20T08:17:34.832Z,61.73
2017-06-20T08:20:02.253Z,62.01
2017-06-20T08:22:29.666Z,61.73
2017-06-20T08:24:57.095Z,60.94
2017-06-20T08:27:24.499Z,61.64
2017-06-20T08:29:51.924Z,60.17
2017-06-20T08:32:19.359Z,59.83
2017-06-20T08:34:46.780Z,59.93
2017-06-20T08:37:19.816Z,61.02
2017-06-20T08:39:47.235Z,59.56
2017-06-20T08:42:14.651Z,59.08
2017-06-20T08:44:42.060Z,58.52
2017-06-20T08:47:09.478Z,57.75
2017-06-20T08:49:36.887Z,57.95
2017-06-20T08:52:04.323Z,57.66
2017-06-20T08:54:31.744Z,56.94
2017-06-20T08:56:59.174Z,56.51
2017-06-20T08:59:26.582Z,56.94
2017-06-20T09:01:54.004Z,56.63
2017-06-20T09:04:21.410Z,55.01
2017-06-20T09:06:48.828Z,55.58
2017-06-20T09:09:16.227Z,55.13
2017-06-20T09:11:43.669Z,54.64
2017-06-20T09:14:11.076Z,54.11
2017-06-20T09:16:38.492Z,54.59
2017-06-20T09:19:05.900Z,53.84
2017-06-20T09:21:33.297Z,53.69
2017-06-20T09:24:00.709Z,54.73
2017-06-20T09:26:28.124Z,54.40
2017-06-20T09:28:55.533Z,53.34
2017-06-20T09:31:22.956Z,52.44
2017-06-20T09:33:50.355Z,49.28
2017-06-20T09:36:17.767Z,48.02
2017-06-20T09:38:48.991Z,48.11
2017-06-20T09:41:16.404Z,47.66
2017-06-20T09:43:43.823Z,47.83
2017-06-20T09:46:11.290Z,48.70
2017-06-20T09:48:38.695Z,47.57
2017-06-20T09:51:06.113Z,48.06
2017-06-20T09:53:33.503Z,48.68
2017-06-20T09:56:00.947Z,48.00
2017-06-20T09:58:28.347Z,49.11
2017-06-20T10:00:55.833Z,49.06
2017-06-20T10:03:23.227Z,48.67
2017-06-20T10:05:50.636Z,47.76
2017-06-20T10:08:18.043Z,47.68
2017-06-20T10:10:45.450Z,48.53
2017-06-20T10:13:12.852Z,49.52
2017-06-20T10:15:40.294Z,50.22
2017-06-20T10:18:07.748Z,50.37
2017-06-20T10:20:35.148Z,51.22
2017-06-20T10:23:02.553Z,50.65
2017-06-20T10:25:29.973Z,50.55
2017-06-20T10:27:57.383Z,49.48
2017-06-20T10:30:24.780Z,50.16
2017-06-20T10:32:52.184Z,48.75
2017-06-20T10:35:19.588Z,48.06
2017-06-20T10:37:47.003Z,49.69
2017-06-20T10:40:14.403Z,49.23
2017-06-20T10:42:41.850Z,49.99
2017-06-20T10:45:09.292Z,49.12
2017-06-20T10:47:36.719Z,49.53
2017-06-20T10:50:04.116Z,48.76
2017-06-20T10:52:31.530Z,48.40
2017-06-20T10:54:58.923Z,48.93
2017-06-20T10:57:26.335Z,49.49
2017-06-20T10:59:53.753Z,48.94
2017-06-20T11:02:21.169Z,49.33
2017-06-20T11:04:48.569Z,49.08
2017-06-20T11:07:15.981Z,49.93
2017-06-20T11:09:43.426Z,48.03
2017-06-20T11:12:10.837Z,48.62
2017-06-20T11:14:38.249Z,47.83
2017-06-20T11:17:05.755Z,46.41
2017-06-20T11:19:33.157Z,45.04
2017-06-20T11:22:00.566Z,45.32
2017-06-20T11:24:27.984Z,46.12
2017-06-20T11:26:55.395Z,46.20
2017-06-20T11:29:22.836Z,44.46
2017-06-20T11:31:50.244Z,44.73
2017-06-20T11:34:17.655Z,43.05
2017-06-20T11:36:45.071Z,45.23
2017-06-20T11:39:12.495Z,45.18
2017-06-20T11:41:39.910Z,43.49
2017-06-20T11:44:07.320Z,44.72
2017-06-20T11:46:34.731Z,45.49
2017-06-20T11:49:02.204Z,45.45
2017-06-20T11:51:29.568Z,46.10
2017-06-20T11:53:56.975Z,47.05
2017-06-20T11:56:24.387Z,45.72
2017-06-20T11:58:51.799Z,45.46
2017-06-20T12:01:19.204Z,45.92
2017-06-20T12:03:46.615Z,46.98
2017-06-20T12:06:14.021Z,46.66
2017-06-20T12:08:41.427Z,48.06
2017-06-20T12:11:08.856Z,47.42
2017-06-20T12:13:36.265Z,46.58
2017-06-20T12:16:03.675Z,46.47
2017-06-20T12:18:31.098Z,45.71
2017-06-20T12:20:58.503Z,46.29
2017-06-20T12:23:25.932Z,47.28
2017-06-20T12:25:53.335Z,48.97
2017-06-20T12:28:20.744Z,47.07
2017-06-20T12:30:48.168Z,48.21
2017-06-20T12:33:15.581Z,48.37
2017-06-20T12:35:42.989Z,48.54
2017-06-20T12:38:10.403Z,48.98
2017-06-20T12:40:37.819Z,49.14
2017-06-20T12:43:05.236Z,48.77
2017-06-20T12:45:32.634Z,49.35
2017-06-20T12:48:00.036Z,49.22
2017-06-20T12:50:27.450Z,47.90
2017-06-20T12:52:54.846Z,49.92
2017-06-20T12:55:22.245Z,48.81
2017-06-20T12:57:49.644Z,48.96
2017-06-20T13:00:17.056Z,49.41
2017-06-20T13:02:44.452Z,49.57
2017-06-20T13:05:11.870Z,49.36
2017-06-20T13:07:39.269Z,49.62
2017-06-20T13:10:06.688Z,49.25
2017-06-20T13:12:34.085Z,48.45
2017-06-20T13:15:01.503Z,48.38
2017-06-20T13:17:28.912Z,48.38
2017-06-20T13:19:56.333Z,49.67
2017-06-20T13:22:23.733Z,49.71
2017-06-20T13:24:51.145Z,49.72
2017-06-20T13:27:18.549Z,51.20
2017-06-20T13:29:45.964Z,51.45
2017-06-20T13:32:13.363Z,51.48
2017-06-20T13:34:40.779Z,48.86
2017-06-20T13:37:08.194Z,50.44
2017-06-20T13:39:35.621Z,49.51
2017-06-20T13:42:03.049Z,49.94
2017-06-20T13:44:30.501Z,49.36
2017-06-20T13:46:57.967Z,47.31
2017-06-20T13:49:25.366Z,47.72
2017-06-20T13:51:52.778Z,48.13
2017-06-20T13:54:20.184Z,48.04
2017-06-20T13:56:47.616Z,49.36
2017-06-20T13:59:15.027Z,49.42
2017-06-20T14:01:42.455Z,48.25
2017-06-20T14:04:09.867Z,49.29
2017-06-20T14:06:37.285Z,49.01
2017-06-20T14:09:04.685Z,48.92
2017-06-20T14:11:32.123Z,48.60
2017-06-20T14:13:59.544Z,49.76
2017-06-20T14:16:26.983Z,50.34
2017-06-20T14:18:54.389Z,49.54
2017-06-20T14:21:21.812Z,50.56
2017-06-20T14:23:49.243Z,49.75
2017-06-20T14:26:16.662Z,49.29
2017-06-20T14:28:48.546Z,48.92
2017-06-20T14:31:15.974Z,49.47
2017-06-20T14:33:43.378Z,49.83
2017-06-20T14:36:10.794Z,50.19
2017-06-20T14:38:38.218Z,49.41
2017-06-20T14:41:05.664Z,50.53
2017-06-20T14:43:36.380Z,49.43
2017-06-20T14:46:03.805Z,49.39
2017-06-20T14:48:31.724Z,48.66
2017-06-20T14:50:59.141Z,48.48
2017-06-20T14:53:26.544Z,48.55
2017-06-20T14:55:54.077Z,47.88
2017-06-20T14:58:21.492Z,47.93
2017-06-20T15:00:48.948Z,48.68
2017-06-20T15:03:16.376Z,48.47
2017-06-20T15:05:43.813Z,49.80
2017-06-20T15:08:11.223Z,48.68
2017-06-20T15:10:38.702Z,48.96
2017-06-20T15:13:06.085Z,48.78
2017-06-20T15:15:33.489Z,48.73
2017-06-20T15:18:00.904Z,48.37
2017-06-20T15:20:28.320Z,47.20
2017-06-20T15:22:58.811Z,47.24
2017-06-20T15:25:26.250Z,47.24
2017-06-20T15:27:53.707Z,47.28
2017-06-20T15:30:21.142Z,47.37
2017-06-20T15:32:48.606Z,47.31
2017-06-20T15:35:16.006Z,47.26
2017-06-20T15:37:43.432Z,47.48
2017-06-20T15:40:10.892Z,47.83
2017-06-20T15:42:38.293Z,47.77
2017-06-20T15:45:05.716Z,47.26
2017-06-20T15:47:33.170Z,46.43
2017-06-20T15:50:00.628Z,46.97
2017-06-20T15:52:28.357Z,47.81
2017-06-20T15:54:55.773Z,46.89
2017-06-20T15:57:23.185Z,47.18
2017-06-20T15:59:50.668Z,47.30
2017-06-20T16:02:18.091Z,47.02
2017-06-20T16:04:45.519Z,48.00
2017-06-20T16:07:12.934Z,47.50
2017-06-20T16:09:40.360Z,48.64
2017-06-20T16:12:07.791Z,48.84
2017-06-20T16:14:35.242Z,47.91
2017-06-20T16:17:02.686Z,47.94
2017-06-20T16:19:30.149Z,47.77
2017-06-20T16:21:57.620Z,47.85
2017-06-20T16:24:25.039Z,48.38
2017-06-20T16:26:52.485Z,47.59
2017-06-20T16:29:19.928Z,47.82
2017-06-20T16:31:47.328Z,48.30
2017-06-20T16:34:14.743Z,47.55
2017-06-20T16:36:42.160Z,47.58
2017-06-20T16:39:12.694Z,46.89
2017-06-20T16:41:40.116Z,47.26
2017-06-20T16:44:07.596Z,47.87
2017-06-20T16:46:42.057Z,47.69
2017-06-20T16:49:09.481Z,47.38
2017-06-20T16:51:36.927Z,46.94
2017-06-20T16:54:04.359Z,46.46
2017-06-20T16:56:31.811Z,46.98
2017-06-20T16:58:59.247Z,46.88
2017-06-20T17:01:26.672Z,46.43
2017-06-20T17:03:54.131Z,46.49
2017-06-20T17:06:21.589Z,47.18
2017-06-20T17:08:49.016Z,47.42
2017-06-20T17:11:16.439Z,47.58
2017-06-20T17:13:43.878Z,47.30
2017-06-20T17:16:11.300Z,46.96
2017-06-20T17:18:38.719Z,46.98
2017-06-20T17:21:06.125Z,46.81
2017-06-20T17:23:33.570Z,46.85
2017-06-20T17:26:00.998Z,46.25
2017-06-20T17:28:28.403Z,46.02
2017-06-20T17:30:55.872Z,45.35
2017-06-20T17:33:23.294Z,45.21
2017-06-20T17:35:50.700Z,45.82
2017-06-20T17:38:18.111Z,45.03
2017-06-20T17:40:45.544Z,45.21
2017-06-20T17:43:13.048Z,45.21
2017-06-20T17:45:40.511Z,45.90
2017-06-20T17:48:07.920Z,46.08
2017-06-20T17:50:35.324Z,45.94
2017-06-20T17:53:02.716Z,46.66
2017-06-20T17:55:30.143Z,45.66
2017-06-20T17:57:57.547Z,46.19
2017-06-20T18:00:24.958Z,46.23
2017-06-20T18:02:52.363Z,45.76
2017-06-20T18:05:19.833Z,45.55
2017-06-20T18:07:48.339Z,45.67
2017-06-20T18:10:15.768Z,45.61
2017-06-20T18:12:43.216Z,47.60
2017-06-20T18:15:10.616Z,46.28
2017-06-20T18:17:38.040Z,45.79
2017-06-20T18:20:05.444Z,46.71
2017-06-20T18:22:32.888Z,46.95
2017-06-20T18:25:00.289Z,45.83
2017-06-20T18:27:27.695Z,44.27
2017-06-20T18:29:55.176Z,43.12
2017-06-20T18:32:22.598Z,43.25
2017-06-20T18:34:49.996Z,43.57
2017-06-20T18:37:17.415Z,42.73
2017-06-20T18:39:44.844Z,42.49
2017-06-20T18:42:12.284Z,41.97
2017-06-20T18:44:39.745Z,42.09
2017-06-20T18:47:07.148Z,42.02
2017-06-20T18:49:34.624Z,42.21
2017-06-20T18:52:02.176Z,42.26
2017-06-20T18:54:29.597Z,42.74
2017-06-20T18:56:57.041Z,43.05
2017-06-20T18:59:25.685Z,43.27
2017-06-20T19:01:53.121Z,43.14
2017-06-20T19:04:20.583Z,43.52
2017-06-20T19:06:48.035Z,43.95
2017-06-20T19:09:15.455Z,44.21
2017-06-20T19:11:42.874Z,44.58
2017-06-20T19:14:10.292Z,44.95
2017-06-20T19:16:37.690Z,45.34
2017-06-20T19:19:05.143Z,45.50
2017-06-20T19:21:32.598Z,45.44
2017-06-20T19:23:59.997Z,45.28
2017-06-20T19:26:27.433Z,45.38
2017-06-20T19:28:54.879Z,45.49
2017-06-20T19:31:22.304Z,45.60
2017-06-20T19:33:49.740Z,45.95
2017-06-20T19:36:17.145Z,46.33
2017-06-20T19:38:44.673Z,46.97
2017-06-20T19:41:12.071Z,47.39
2017-06-20T19:43:39.506Z,47.67
2017-06-20T19:46:06.903Z,48.06
2017-06-20T19:48:34.299Z,48.05
2017-06-20T19:51:01.750Z,47.85
2017-06-20T19:53:29.147Z,48.03
2017-06-20T19:55:56.559Z,48.55
2017-06-20T19:58:25.433Z,48.64
2017-06-20T20:00:52.919Z,48.76
2017-06-20T20:03:20.318Z,48.87
2017-06-20T20:05:47.731Z,49.04
2017-06-20T20:08:15.145Z,49.31
2017-06-20T20:10:42.566Z,48.93
2017-06-20T20:13:09.967Z,49.13
2017-06-20T20:15:37.377Z,49.45
2017-06-20T20:18:04.787Z,49.80
2017-06-20T20:20:32.202Z,50.65
2017-06-20T20:22:59.677Z,51.07
2017-06-20T20:25:27.108Z,51.53
2017-06-20T20:27:54.547Z,52.28
2017-06-20T20:30:21.978Z,53.37
2017-06-20T20:32:49.375Z,53.80
2017-06-20T20:35:16.801Z,54.07
2017-06-20T20:37:44.221Z,54.05
2017-06-20T20:40:11.627Z,54.28
2017-06-20T20:42:39.035Z,54.56
2017-06-20T20:45:06.518Z,55.11
2017-06-20T20:47:33.933Z,55.02
2017-06-20T20:50:01.335Z,55.57
2017-06-20T20:52:29.455Z,56.49
2017-06-20T20:54:56.864Z,56.81
2017-06-20T20:57:24.270Z,56.46
2017-06-20T20:59:51.700Z,56.71
2017-06-20T21:02:19.093Z,57.02
2017-06-20T21:04:46.491Z,57.60
2017-06-20T21:07:13.912Z,56.96
2017-06-20T21:09:41.343Z,57.43
2017-06-20T21:12:08.759Z,57.53
2017-06-20T21:14:36.189Z,57.87
2017-06-20T21:17:03.655Z,58.12
2017-06-20T21:19:31.058Z,58.01
2017-06-20T21:21:58.489Z,58.02
2017-06-20T21:24:25.899Z,57.57
2017-06-20T21:26:53.320Z,57.62
2017-06-20T21:29:20.733Z,57.58
2017-06-20T21:31:48.143Z,57.82
2017-06-20T21:34:15.559Z,57.77
2017-06-20T21:36:42.955Z,57.99
2017-06-20T21:39:10.370Z,57.94
2017-06-20T21:41:40.718Z,57.74
2017-06-20T21:44:08.588Z,57.66
2017-06-20T21:46:35.988Z,57.32
2017-06-20T21:49:03.395Z,57.57
2017-06-20T21:51:30.976Z,57.38
2017-06-20T21:53:58.392Z,57.98
2017-06-20T21:56:25.815Z,58.41
2017-06-20T21:58:53.227Z,58.00
2017-06-20T22:01:20.649Z,57.31
2017-06-20T22:03:48.044Z,56.84
2017-06-20T22:06:15.491Z,56.53
2017-06-20T22:08:43.801Z,56.00
2017-06-20T22:11:11.212Z,56.00
2017-06-20T22:13:38.603Z,56.23
2017-06-20T22:16:06.027Z,56.05
2017-06-20T22:18:33.444Z,55.93
2017-06-20T22:21:00.839Z,56.19
2017-06-20T22:23:28.287Z,57.31
2017-06-20T22:25:55.667Z,57.77
2017-06-20T22:28:23.075Z,57.44
2017-06-20T22:30:50.520Z,57.72
2017-06-20T22:33:17.942Z,57.53
2017-06-20T22:35:45.350Z,57.17
2017-06-20T22:38:12.763Z,57.25
2017-06-20T22:40:40.151Z,57.46
2017-06-20T22:43:07.547Z,57.25
2017-06-20T22:45:34.955Z,58.15
2017-06-20T22:48:02.370Z,57.91
2017-06-20T22:50:29.773Z,57.62
2017-06-20T22:52:57.168Z,58.26
2017-06-20T22:55:24.575Z,57.69
2017-06-20T22:57:51.997Z,58.42
2017-06-20T23:00:19.494Z,59.16
2017-06-20T23:02:46.880Z,59.66
2017-06-20T23:05:14.279Z,60.25
2017-06-20T23:07:41.691Z,60.42
2017-06-20T23:10:09.096Z,61.19
2017-06-20T23:12:36.506Z,61.53
2017-06-20T23:15:03.911Z,61.58
2017-06-20T23:17:31.310Z,60.89
2017-06-20T23:19:58.718Z,60.88
2017-06-20T23:22:26.123Z,60.81
2017-06-20T23:24:53.520Z,60.59
2017-06-20T23:27:22.315Z,60.20
2017-06-20T23:29:49.712Z,59.39
2017-06-20T23:32:17.137Z,58.85
2017-06-20T23:34:44.529Z,58.83
2017-06-20T23:37:11.931Z,58.78
2017-06-20T23:39:39.336Z,58.86
2017-06-20T23:42:06.740Z,58.28
2017-06-20T23:44:34.164Z,58.74
2017-06-20T23:47:01.568Z,58.73
2017-06-20T23:49:28.970Z,58.78
2017-06-20T23:51:56.642Z,59.35
2017-06-20T23:54:24.063Z,59.48
2017-06-20T23:56:51.463Z,60.05
2017-06-20T23:59:18.875Z,60.44
